Terminal Aerodrome Forecast
Issued by NWS

Home | Current Version | Previous Version | Text Only | Print | Product List | Glossary On
Versions: 1 2 3 4 5 6 7 8 9 10 11 12 13 14
000
FTUS45 KSLC 281730
TAF36U
TAF
K36U 281730Z 2818/2918 VRB03KT P6SM SCT100
     FM281900 22009G17KT P6SM FEW070 SCT100
     FM290100 29010KT P6SM SCT050 SCT100
     FM290400 VRB06KT P6SM SCT080=

USA.gov is the U.S. government's official web portal to all federal, state and local government web resources and services.